sensor_id;sensor_type;location;lat;lon;timestamp;P1;durP1;ratioP1;P2;durP2;ratioP2
22660;SDS011;11497;52.222;21.246;2022-09-09T00:00:47;15.82;;;8.55;;
22660;SDS011;11497;52.222;21.246;2022-09-09T00:03:43;18.52;;;9.40;;
22660;SDS011;11497;52.222;21.246;2022-09-09T00:06:55;16.13;;;9.35;;
22660;SDS011;11497;52.222;21.246;2022-09-09T00:09:42;14.32;;;8.80;;
22660;SDS011;11497;52.222;21.246;2022-09-09T00:12:23;16.40;;;9.57;;
22660;SDS011;11497;52.222;21.246;2022-09-09T00:15:00;17.35;;;9.88;;
22660;SDS011;11497;52.222;21.246;2022-09-09T00:17:39;16.15;;;9.85;;
22660;SDS011;11497;52.222;21.246;2022-09-09T00:25:49;15.60;;;9.52;;
22660;SDS011;11497;52.222;21.246;2022-09-09T00:28:28;16.25;;;9.73;;
22660;SDS011;11497;52.222;21.246;2022-09-09T00:31:08;13.30;;;8.90;;
22660;SDS011;11497;52.222;21.246;2022-09-09T00:33:40;18.27;;;10.52;;
22660;SDS011;11497;52.222;21.246;2022-09-09T00:36:14;20.33;;;9.90;;
22660;SDS011;11497;52.222;21.246;2022-09-09T00:38:46;18.85;;;9.65;;
22660;SDS011;11497;52.222;21.246;2022-09-09T00:52:42;20.70;;;8.93;;
22660;SDS011;11497;52.222;21.246;2022-09-09T00:55:33;17.98;;;10.15;;
22660;SDS011;11497;52.222;21.246;2022-09-09T00:58:20;17.17;;;9.48;;
22660;SDS011;11497;52.222;21.246;2022-09-09T01:03:46;20.00;;;11.45;;
22660;SDS011;11497;52.222;21.246;2022-09-09T01:06:33;18.98;;;10.95;;
22660;SDS011;11497;52.222;21.246;2022-09-09T01:09:15;19.10;;;11.52;;
22660;SDS011;11497;52.222;21.246;2022-09-09T01:15:04;18.90;;;10.80;;
22660;SDS011;11497;52.222;21.246;2022-09-09T01:17:58;17.90;;;12.05;;
22660;SDS011;11497;52.222;21.246;2022-09-09T01:20:31;17.05;;;10.93;;
22660;SDS011;11497;52.222;21.246;2022-09-09T01:29:24;20.67;;;12.07;;
22660;SDS011;11497;52.222;21.246;2022-09-09T01:31:53;18.05;;;11.93;;
22660;SDS011;11497;52.222;21.246;2022-09-09T01:34:31;22.20;;;11.77;;
22660;SDS011;11497;52.222;21.246;2022-09-09T01:39:40;20.40;;;12.32;;
22660;SDS011;11497;52.222;21.246;2022-09-09T01:42:13;21.75;;;12.38;;
22660;SDS011;11497;52.222;21.246;2022-09-09T01:44:43;22.80;;;13.18;;
22660;SDS011;11497;52.222;21.246;2022-09-09T01:47:12;20.65;;;12.60;;
22660;SDS011;11497;52.222;21.246;2022-09-09T01:50:16;20.58;;;12.55;;
22660;SDS011;11497;52.222;21.246;2022-09-09T01:52:45;19.02;;;12.93;;
22660;SDS011;11497;52.222;21.246;2022-09-09T01:55:20;21.88;;;13.20;;
22660;SDS011;11497;52.222;21.246;2022-09-09T02:01:00;21.98;;;14.38;;
22660;SDS011;11497;52.222;21.246;2022-09-09T02:03:30;22.38;;;13.52;;
22660;SDS011;11497;52.222;21.246;2022-09-09T02:06:30;21.23;;;14.20;;
22660;SDS011;11497;52.222;21.246;2022-09-09T02:09:17;25.45;;;15.10;;
22660;SDS011;11497;52.222;21.246;2022-09-09T02:11:50;24.38;;;14.18;;
22660;SDS011;11497;52.222;21.246;2022-09-09T02:17:12;23.25;;;14.15;;
22660;SDS011;11497;52.222;21.246;2022-09-09T02:20:00;23.05;;;14.23;;
22660;SDS011;11497;52.222;21.246;2022-09-09T02:22:41;22.83;;;15.30;;
22660;SDS011;11497;52.222;21.246;2022-09-09T02:25:15;27.07;;;14.70;;
22660;SDS011;11497;52.222;21.246;2022-09-09T02:27:47;21.45;;;14.07;;
22660;SDS011;11497;52.222;21.246;2022-09-09T02:30:18;23.35;;;14.38;;
22660;SDS011;11497;52.222;21.246;2022-09-09T02:32:52;24.15;;;14.73;;
22660;SDS011;11497;52.222;21.246;2022-09-09T02:35:35;20.30;;;13.85;;
22660;SDS011;11497;52.222;21.246;2022-09-09T02:38:07;24.65;;;14.95;;
22660;SDS011;11497;52.222;21.246;2022-09-09T02:40:42;22.30;;;14.35;;
22660;SDS011;11497;52.222;21.246;2022-09-09T02:43:10;26.02;;;15.27;;
22660;SDS011;11497;52.222;21.246;2022-09-09T02:48:44;23.70;;;13.30;;
22660;SDS011;11497;52.222;21.246;2022-09-09T02:54:30;20.55;;;11.98;;
22660;SDS011;11497;52.222;21.246;2022-09-09T02:57:08;25.00;;;14.57;;
22660;SDS011;11497;52.222;21.246;2022-09-09T02:59:45;22.83;;;14.00;;
22660;SDS011;11497;52.222;21.246;2022-09-09T03:02:15;23.17;;;13.73;;
22660;SDS011;11497;52.222;21.246;2022-09-09T03:04:47;21.20;;;13.23;;
22660;SDS011;11497;52.222;21.246;2022-09-09T03:07:19;21.98;;;12.85;;
22660;SDS011;11497;52.222;21.246;2022-09-09T03:09:48;24.05;;;13.55;;
22660;SDS011;11497;52.222;21.246;2022-09-09T03:12:16;20.25;;;13.25;;
22660;SDS011;11497;52.222;21.246;2022-09-09T03:14:44;19.25;;;13.05;;
22660;SDS011;11497;52.222;21.246;2022-09-09T03:17:13;18.48;;;12.32;;
22660;SDS011;11497;52.222;21.246;2022-09-09T03:19:48;20.75;;;13.38;;
22660;SDS011;11497;52.222;21.246;2022-09-09T03:22:17;20.75;;;13.15;;
22660;SDS011;11497;52.222;21.246;2022-09-09T03:24:45;23.52;;;14.20;;
22660;SDS011;11497;52.222;21.246;2022-09-09T03:27:13;19.33;;;13.05;;
22660;SDS011;11497;52.222;21.246;2022-09-09T03:29:42;19.92;;;13.07;;
22660;SDS011;11497;52.222;21.246;2022-09-09T03:32:13;20.58;;;13.73;;
22660;SDS011;11497;52.222;21.246;2022-09-09T03:34:44;24.05;;;14.45;;
22660;SDS011;11497;52.222;21.246;2022-09-09T03:37:16;21.02;;;13.15;;
22660;SDS011;11497;52.222;21.246;2022-09-09T03:39:45;19.45;;;13.77;;
22660;SDS011;11497;52.222;21.246;2022-09-09T03:42:15;22.85;;;13.50;;
22660;SDS011;11497;52.222;21.246;2022-09-09T03:44:50;21.98;;;13.98;;
22660;SDS011;11497;52.222;21.246;2022-09-09T03:47:21;22.08;;;13.73;;
22660;SDS011;11497;52.222;21.246;2022-09-09T03:49:53;19.17;;;11.82;;
22660;SDS011;11497;52.222;21.246;2022-09-09T03:52:21;19.38;;;12.18;;
22660;SDS011;11497;52.222;21.246;2022-09-09T03:54:52;18.45;;;12.80;;
22660;SDS011;11497;52.222;21.246;2022-09-09T03:57:21;17.30;;;12.40;;
22660;SDS011;11497;52.222;21.246;2022-09-09T03:59:49;19.15;;;12.50;;
22660;SDS011;11497;52.222;21.246;2022-09-09T04:02:17;19.65;;;11.75;;
22660;SDS011;11497;52.222;21.246;2022-09-09T04:04:45;17.77;;;12.07;;
22660;SDS011;11497;52.222;21.246;2022-09-09T04:07:13;17.13;;;11.05;;
22660;SDS011;11497;52.222;21.246;2022-09-09T04:09:41;15.10;;;11.50;;
22660;SDS011;11497;52.222;21.246;2022-09-09T04:12:09;16.98;;;11.68;;
22660;SDS011;11497;52.222;21.246;2022-09-09T04:14:40;15.77;;;11.07;;
22660;SDS011;11497;52.222;21.246;2022-09-09T04:17:08;20.48;;;11.75;;
22660;SDS011;11497;52.222;21.246;2022-09-09T04:19:36;13.98;;;10.85;;
22660;SDS011;11497;52.222;21.246;2022-09-09T04:22:04;18.13;;;11.77;;
22660;SDS011;11497;52.222;21.246;2022-09-09T04:24:32;16.20;;;11.60;;
22660;SDS011;11497;52.222;21.246;2022-09-09T04:27:00;16.88;;;11.15;;
22660;SDS011;11497;52.222;21.246;2022-09-09T04:29:29;14.10;;;10.48;;
22660;SDS011;11497;52.222;21.246;2022-09-09T04:31:57;16.67;;;10.02;;
22660;SDS011;11497;52.222;21.246;2022-09-09T04:34:25;14.15;;;10.15;;
22660;SDS011;11497;52.222;21.246;2022-09-09T04:36:54;17.92;;;10.45;;
22660;SDS011;11497;52.222;21.246;2022-09-09T04:39:23;13.82;;;9.80;;
22660;SDS011;11497;52.222;21.246;2022-09-09T04:41:51;14.25;;;10.48;;
22660;SDS011;11497;52.222;21.246;2022-09-09T04:44:21;12.90;;;9.60;;
22660;SDS011;11497;52.222;21.246;2022-09-09T04:46:49;17.65;;;10.40;;
22660;SDS011;11497;52.222;21.246;2022-09-09T04:49:17;16.33;;;10.35;;
22660;SDS011;11497;52.222;21.246;2022-09-09T04:51:45;14.40;;;10.68;;
22660;SDS011;11497;52.222;21.246;2022-09-09T04:54:13;13.63;;;9.75;;
22660;SDS011;11497;52.222;21.246;2022-09-09T04:56:43;13.82;;;9.55;;
22660;SDS011;11497;52.222;21.246;2022-09-09T04:59:11;11.55;;;9.35;;
22660;SDS011;11497;52.222;21.246;2022-09-09T05:01:43;12.35;;;8.77;;
22660;SDS011;11497;52.222;21.246;2022-09-09T05:04:13;13.65;;;8.57;;
22660;SDS011;11497;52.222;21.246;2022-09-09T05:06:42;10.57;;;8.40;;
22660;SDS011;11497;52.222;21.246;2022-09-09T05:09:11;12.02;;;9.27;;
22660;SDS011;11497;52.222;21.246;2022-09-09T05:11:40;14.35;;;8.38;;
22660;SDS011;11497;52.222;21.246;2022-09-09T05:14:31;12.35;;;8.82;;
22660;SDS011;11497;52.222;21.246;2022-09-09T05:17:00;10.32;;;7.97;;
22660;SDS011;11497;52.222;21.246;2022-09-09T05:19:28;12.27;;;8.75;;
22660;SDS011;11497;52.222;21.246;2022-09-09T05:21:57;12.73;;;7.63;;
22660;SDS011;11497;52.222;21.246;2022-09-09T05:24:33;11.60;;;7.70;;
22660;SDS011;11497;52.222;21.246;2022-09-09T05:27:02;10.88;;;8.00;;
22660;SDS011;11497;52.222;21.246;2022-09-09T05:29:32;10.38;;;8.48;;
22660;SDS011;11497;52.222;21.246;2022-09-09T05:32:03;9.35;;;8.23;;
22660;SDS011;11497;52.222;21.246;2022-09-09T05:34:31;8.75;;;7.65;;
22660;SDS011;11497;52.222;21.246;2022-09-09T05:37:00;9.23;;;8.20;;
22660;SDS011;11497;52.222;21.246;2022-09-09T05:39:27;9.40;;;8.40;;
22660;SDS011;11497;52.222;21.246;2022-09-09T05:41:55;12.90;;;8.40;;
22660;SDS011;11497;52.222;21.246;2022-09-09T05:44:23;11.73;;;8.43;;
22660;SDS011;11497;52.222;21.246;2022-09-09T05:46:54;10.52;;;8.85;;
22660;SDS011;11497;52.222;21.246;2022-09-09T05:49:24;13.80;;;8.60;;
22660;SDS011;11497;52.222;21.246;2022-09-09T05:51:52;12.68;;;8.55;;
22660;SDS011;11497;52.222;21.246;2022-09-09T05:54:22;15.38;;;8.80;;
22660;SDS011;11497;52.222;21.246;2022-09-09T05:56:51;11.18;;;8.85;;
22660;SDS011;11497;52.222;21.246;2022-09-09T05:59:20;11.68;;;9.30;;
22660;SDS011;11497;52.222;21.246;2022-09-09T06:01:51;11.30;;;8.95;;
22660;SDS011;11497;52.222;21.246;2022-09-09T06:04:28;13.27;;;9.35;;
22660;SDS011;11497;52.222;21.246;2022-09-09T06:06:59;13.90;;;10.57;;
22660;SDS011;11497;52.222;21.246;2022-09-09T06:09:28;16.48;;;9.25;;
22660;SDS011;11497;52.222;21.246;2022-09-09T06:11:57;13.00;;;9.15;;
22660;SDS011;11497;52.222;21.246;2022-09-09T06:14:25;13.55;;;10.40;;
22660;SDS011;11497;52.222;21.246;2022-09-09T06:16:56;12.80;;;10.63;;
22660;SDS011;11497;52.222;21.246;2022-09-09T06:19:28;13.63;;;9.90;;
22660;SDS011;11497;52.222;21.246;2022-09-09T06:21:58;14.98;;;11.20;;
22660;SDS011;11497;52.222;21.246;2022-09-09T06:24:28;16.13;;;10.88;;
22660;SDS011;11497;52.222;21.246;2022-09-09T06:26:58;13.30;;;10.60;;
22660;SDS011;11497;52.222;21.246;2022-09-09T06:29:29;17.27;;;10.65;;
22660;SDS011;11497;52.222;21.246;2022-09-09T06:31:57;18.55;;;12.27;;
22660;SDS011;11497;52.222;21.246;2022-09-09T06:34:26;20.90;;;12.43;;
22660;SDS011;11497;52.222;21.246;2022-09-09T06:36:57;15.95;;;11.77;;
22660;SDS011;11497;52.222;21.246;2022-09-09T06:39:30;18.27;;;12.07;;
22660;SDS011;11497;52.222;21.246;2022-09-09T06:41:59;18.27;;;12.65;;
22660;SDS011;11497;52.222;21.246;2022-09-09T06:44:50;18.75;;;12.57;;
22660;SDS011;11497;52.222;21.246;2022-09-09T06:47:48;18.13;;;12.15;;
22660;SDS011;11497;52.222;21.246;2022-09-09T06:50:18;16.90;;;12.15;;
22660;SDS011;11497;52.222;21.246;2022-09-09T06:52:47;17.52;;;13.00;;
22660;SDS011;11497;52.222;21.246;2022-09-09T06:55:15;16.80;;;11.60;;
22660;SDS011;11497;52.222;21.246;2022-09-09T06:57:44;20.00;;;12.88;;
22660;SDS011;11497;52.222;21.246;2022-09-09T07:00:16;16.60;;;11.80;;
22660;SDS011;11497;52.222;21.246;2022-09-09T07:02:44;18.63;;;12.30;;
22660;SDS011;11497;52.222;21.246;2022-09-09T07:05:13;20.52;;;13.98;;
22660;SDS011;11497;52.222;21.246;2022-09-09T07:07:43;23.27;;;17.20;;
22660;SDS011;11497;52.222;21.246;2022-09-09T07:10:13;25.08;;;19.40;;
22660;SDS011;11497;52.222;21.246;2022-09-09T07:12:43;28.15;;;21.15;;
22660;SDS011;11497;52.222;21.246;2022-09-09T07:15:12;24.23;;;17.48;;
22660;SDS011;11497;52.222;21.246;2022-09-09T07:17:43;23.02;;;16.88;;
22660;SDS011;11497;52.222;21.246;2022-09-09T07:20:11;22.38;;;15.90;;
22660;SDS011;11497;52.222;21.246;2022-09-09T07:22:40;26.08;;;16.52;;
22660;SDS011;11497;52.222;21.246;2022-09-09T07:25:09;17.63;;;12.90;;
22660;SDS011;11497;52.222;21.246;2022-09-09T07:27:37;17.38;;;13.15;;
22660;SDS011;11497;52.222;21.246;2022-09-09T07:30:06;19.20;;;13.95;;
22660;SDS011;11497;52.222;21.246;2022-09-09T07:32:34;17.65;;;13.50;;
22660;SDS011;11497;52.222;21.246;2022-09-09T07:35:02;18.25;;;13.18;;
22660;SDS011;11497;52.222;21.246;2022-09-09T07:37:31;17.17;;;12.60;;
22660;SDS011;11497;52.222;21.246;2022-09-09T07:39:59;16.25;;;12.88;;
22660;SDS011;11497;52.222;21.246;2022-09-09T07:42:29;18.75;;;11.82;;
22660;SDS011;11497;52.222;21.246;2022-09-09T07:44:57;21.45;;;12.75;;
22660;SDS011;11497;52.222;21.246;2022-09-09T07:47:26;20.08;;;13.93;;
22660;SDS011;11497;52.222;21.246;2022-09-09T07:49:53;19.52;;;12.65;;
22660;SDS011;11497;52.222;21.246;2022-09-09T07:52:27;20.88;;;13.10;;
22660;SDS011;11497;52.222;21.246;2022-09-09T07:54:59;17.38;;;11.63;;
22660;SDS011;11497;52.222;21.246;2022-09-09T07:57:30;15.60;;;12.02;;
22660;SDS011;11497;52.222;21.246;2022-09-09T07:59:58;17.80;;;12.55;;
22660;SDS011;11497;52.222;21.246;2022-09-09T08:02:27;19.33;;;12.52;;
22660;SDS011;11497;52.222;21.246;2022-09-09T08:04:56;18.08;;;12.20;;
22660;SDS011;11497;52.222;21.246;2022-09-09T08:07:24;17.13;;;11.48;;
22660;SDS011;11497;52.222;21.246;2022-09-09T08:09:54;20.27;;;12.70;;
22660;SDS011;11497;52.222;21.246;2022-09-09T08:12:27;16.85;;;12.82;;
22660;SDS011;11497;52.222;21.246;2022-09-09T08:14:55;21.05;;;13.38;;
22660;SDS011;11497;52.222;21.246;2022-09-09T08:17:27;18.45;;;12.52;;
22660;SDS011;11497;52.222;21.246;2022-09-09T08:19:57;17.13;;;11.73;;
22660;SDS011;11497;52.222;21.246;2022-09-09T08:22:32;19.05;;;13.07;;
22660;SDS011;11497;52.222;21.246;2022-09-09T08:25:00;19.35;;;11.85;;
22660;SDS011;11497;52.222;21.246;2022-09-09T08:27:32;19.48;;;12.52;;
22660;SDS011;11497;52.222;21.246;2022-09-09T08:30:00;17.50;;;12.57;;
22660;SDS011;11497;52.222;21.246;2022-09-09T08:32:29;19.73;;;12.70;;
22660;SDS011;11497;52.222;21.246;2022-09-09T08:34:58;17.30;;;12.27;;
22660;SDS011;11497;52.222;21.246;2022-09-09T08:37:28;15.23;;;11.65;;
22660;SDS011;11497;52.222;21.246;2022-09-09T08:39:56;20.13;;;12.30;;
22660;SDS011;11497;52.222;21.246;2022-09-09T08:42:27;18.33;;;12.23;;
22660;SDS011;11497;52.222;21.246;2022-09-09T08:45:29;19.92;;;12.45;;
22660;SDS011;11497;52.222;21.246;2022-09-09T08:48:36;16.40;;;12.20;;
22660;SDS011;11497;52.222;21.246;2022-09-09T08:51:27;18.75;;;12.73;;
22660;SDS011;11497;52.222;21.246;2022-09-09T08:53:58;18.80;;;13.48;;
22660;SDS011;11497;52.222;21.246;2022-09-09T08:56:31;21.52;;;12.82;;
22660;SDS011;11497;52.222;21.246;2022-09-09T08:59:01;18.65;;;13.05;;
22660;SDS011;11497;52.222;21.246;2022-09-09T09:18:46;22.42;;;13.82;;
22660;SDS011;11497;52.222;21.246;2022-09-09T09:21:24;23.70;;;15.00;;
22660;SDS011;11497;52.222;21.246;2022-09-09T09:24:20;21.08;;;14.55;;
22660;SDS011;11497;52.222;21.246;2022-09-09T09:27:07;24.00;;;15.18;;
22660;SDS011;11497;52.222;21.246;2022-09-09T09:29:48;25.52;;;14.73;;
22660;SDS011;11497;52.222;21.246;2022-09-09T09:32:39;27.17;;;15.88;;
22660;SDS011;11497;52.222;21.246;2022-09-09T09:35:21;22.55;;;15.60;;
22660;SDS011;11497;52.222;21.246;2022-09-09T09:37:49;26.00;;;16.52;;
22660;SDS011;11497;52.222;21.246;2022-09-09T09:40:37;23.98;;;15.70;;
22660;SDS011;11497;52.222;21.246;2022-09-09T09:43:29;28.25;;;16.13;;
22660;SDS011;11497;52.222;21.246;2022-09-09T09:46:05;26.13;;;16.52;;
22660;SDS011;11497;52.222;21.246;2022-09-09T09:48:56;26.65;;;17.15;;
22660;SDS011;11497;52.222;21.246;2022-09-09T09:51:26;24.77;;;17.67;;
22660;SDS011;11497;52.222;21.246;2022-09-09T09:54:31;25.60;;;16.13;;
22660;SDS011;11497;52.222;21.246;2022-09-09T09:57:13;24.98;;;16.27;;
22660;SDS011;11497;52.222;21.246;2022-09-09T09:59:45;27.90;;;17.17;;
22660;SDS011;11497;52.222;21.246;2022-09-09T10:02:22;30.25;;;17.75;;
22660;SDS011;11497;52.222;21.246;2022-09-09T10:05:02;30.77;;;18.75;;
22660;SDS011;11497;52.222;21.246;2022-09-09T10:07:35;30.27;;;18.33;;
22660;SDS011;11497;52.222;21.246;2022-09-09T10:10:04;29.33;;;18.85;;
22660;SDS011;11497;52.222;21.246;2022-09-09T10:12:47;30.63;;;18.35;;
22660;SDS011;11497;52.222;21.246;2022-09-09T10:15:33;29.88;;;18.63;;
22660;SDS011;11497;52.222;21.246;2022-09-09T10:18:25;28.48;;;18.70;;
22660;SDS011;11497;52.222;21.246;2022-09-09T10:24:48;27.83;;;18.33;;
22660;SDS011;11497;52.222;21.246;2022-09-09T10:27:19;26.33;;;17.67;;
22660;SDS011;11497;52.222;21.246;2022-09-09T10:30:18;30.27;;;20.00;;
22660;SDS011;11497;52.222;21.246;2022-09-09T10:33:13;29.33;;;18.42;;
22660;SDS011;11497;52.222;21.246;2022-09-09T10:36:07;27.88;;;17.42;;
22660;SDS011;11497;52.222;21.246;2022-09-09T10:38:45;28.27;;;18.27;;
22660;SDS011;11497;52.222;21.246;2022-09-09T10:41:26;28.45;;;18.75;;
22660;SDS011;11497;52.222;21.246;2022-09-09T10:44:21;33.22;;;19.15;;
22660;SDS011;11497;52.222;21.246;2022-09-09T10:52:52;29.25;;;19.10;;
22660;SDS011;11497;52.222;21.246;2022-09-09T10:55:52;28.63;;;18.38;;
22660;SDS011;11497;52.222;21.246;2022-09-09T10:58:30;32.38;;;20.65;;
22660;SDS011;11497;52.222;21.246;2022-09-09T11:01:10;32.83;;;20.00;;
22660;SDS011;11497;52.222;21.246;2022-09-09T11:04:05;31.42;;;20.10;;
22660;SDS011;11497;52.222;21.246;2022-09-09T11:06:41;34.08;;;20.15;;
22660;SDS011;11497;52.222;21.246;2022-09-09T11:09:18;35.35;;;22.08;;
22660;SDS011;11497;52.222;21.246;2022-09-09T11:11:58;31.30;;;20.65;;
22660;SDS011;11497;52.222;21.246;2022-09-09T11:14:43;30.48;;;20.33;;
22660;SDS011;11497;52.222;21.246;2022-09-09T11:17:26;31.75;;;19.42;;
22660;SDS011;11497;52.222;21.246;2022-09-09T11:20:04;27.88;;;18.98;;
22660;SDS011;11497;52.222;21.246;2022-09-09T11:22:39;36.03;;;19.20;;
22660;SDS011;11497;52.222;21.246;2022-09-09T11:25:19;29.63;;;19.42;;
22660;SDS011;11497;52.222;21.246;2022-09-09T11:30:24;30.95;;;19.48;;
22660;SDS011;11497;52.222;21.246;2022-09-09T11:39:17;30.45;;;20.50;;
22660;SDS011;11497;52.222;21.246;2022-09-09T11:41:51;34.20;;;20.23;;
22660;SDS011;11497;52.222;21.246;2022-09-09T11:44:21;30.40;;;19.20;;
22660;SDS011;11497;52.222;21.246;2022-09-09T11:46:56;33.58;;;20.20;;
22660;SDS011;11497;52.222;21.246;2022-09-09T11:49:28;30.70;;;20.38;;
22660;SDS011;11497;52.222;21.246;2022-09-09T11:54:54;35.92;;;20.95;;
22660;SDS011;11497;52.222;21.246;2022-09-09T11:57:24;32.42;;;20.52;;
22660;SDS011;11497;52.222;21.246;2022-09-09T11:59:58;31.45;;;19.08;;
22660;SDS011;11497;52.222;21.246;2022-09-09T12:02:37;33.78;;;19.92;;
22660;SDS011;11497;52.222;21.246;2022-09-09T12:05:17;32.70;;;20.27;;
22660;SDS011;11497;52.222;21.246;2022-09-09T12:07:50;34.70;;;19.65;;
22660;SDS011;11497;52.222;21.246;2022-09-09T12:10:26;32.15;;;19.80;;
22660;SDS011;11497;52.222;21.246;2022-09-09T12:15:49;32.70;;;20.10;;
22660;SDS011;11497;52.222;21.246;2022-09-09T12:21:06;34.05;;;20.13;;
22660;SDS011;11497;52.222;21.246;2022-09-09T12:26:11;31.77;;;20.00;;
22660;SDS011;11497;52.222;21.246;2022-09-09T12:28:49;33.00;;;20.13;;
22660;SDS011;11497;52.222;21.246;2022-09-09T12:31:29;33.22;;;18.98;;
22660;SDS011;11497;52.222;21.246;2022-09-09T12:34:14;33.72;;;20.25;;
22660;SDS011;11497;52.222;21.246;2022-09-09T12:36:56;35.58;;;21.25;;
22660;SDS011;11497;52.222;21.246;2022-09-09T12:39:31;40.22;;;21.73;;
22660;SDS011;11497;52.222;21.246;2022-09-09T12:42:24;33.63;;;20.70;;
22660;SDS011;11497;52.222;21.246;2022-09-09T12:44:55;34.65;;;20.88;;
22660;SDS011;11497;52.222;21.246;2022-09-09T12:47:25;32.13;;;21.05;;
22660;SDS011;11497;52.222;21.246;2022-09-09T12:50:02;32.38;;;19.90;;
22660;SDS011;11497;52.222;21.246;2022-09-09T12:52:37;33.17;;;21.38;;
22660;SDS011;11497;52.222;21.246;2022-09-09T12:55:05;33.67;;;20.05;;
22660;SDS011;11497;52.222;21.246;2022-09-09T12:57:36;32.45;;;20.60;;
22660;SDS011;11497;52.222;21.246;2022-09-09T13:00:14;37.42;;;20.38;;
22660;SDS011;11497;52.222;21.246;2022-09-09T13:02:45;32.80;;;19.92;;
22660;SDS011;11497;52.222;21.246;2022-09-09T13:05:15;30.55;;;19.50;;
22660;SDS011;11497;52.222;21.246;2022-09-09T13:07:51;34.47;;;20.45;;
22660;SDS011;11497;52.222;21.246;2022-09-09T13:10:29;37.13;;;19.50;;
22660;SDS011;11497;52.222;21.246;2022-09-09T13:13:20;32.08;;;19.63;;
22660;SDS011;11497;52.222;21.246;2022-09-09T13:16:34;32.70;;;20.13;;
22660;SDS011;11497;52.222;21.246;2022-09-09T13:19:09;32.45;;;20.15;;
22660;SDS011;11497;52.222;21.246;2022-09-09T13:21:42;33.88;;;20.20;;
22660;SDS011;11497;52.222;21.246;2022-09-09T13:27:01;34.17;;;20.40;;
22660;SDS011;11497;52.222;21.246;2022-09-09T13:29:31;37.63;;;21.17;;
22660;SDS011;11497;52.222;21.246;2022-09-09T13:32:03;31.73;;;19.52;;
22660;SDS011;11497;52.222;21.246;2022-09-09T13:34:34;35.22;;;21.73;;
22660;SDS011;11497;52.222;21.246;2022-09-09T13:37:03;36.78;;;22.70;;
22660;SDS011;11497;52.222;21.246;2022-09-09T13:39:33;35.60;;;20.83;;
22660;SDS011;11497;52.222;21.246;2022-09-09T13:42:03;33.35;;;21.45;;
22660;SDS011;11497;52.222;21.246;2022-09-09T13:44:34;34.25;;;21.75;;
22660;SDS011;11497;52.222;21.246;2022-09-09T13:47:27;38.25;;;22.42;;
22660;SDS011;11497;52.222;21.246;2022-09-09T13:49:55;37.10;;;22.02;;
22660;SDS011;11497;52.222;21.246;2022-09-09T13:52:23;35.10;;;21.38;;
22660;SDS011;11497;52.222;21.246;2022-09-09T13:54:53;36.42;;;20.45;;
22660;SDS011;11497;52.222;21.246;2022-09-09T13:57:23;35.28;;;20.75;;
22660;SDS011;11497;52.222;21.246;2022-09-09T13:59:53;32.13;;;20.75;;
22660;SDS011;11497;52.222;21.246;2022-09-09T14:02:37;34.47;;;20.13;;
22660;SDS011;11497;52.222;21.246;2022-09-09T14:05:05;31.50;;;21.55;;
22660;SDS011;11497;52.222;21.246;2022-09-09T14:07:33;38.13;;;22.08;;
22660;SDS011;11497;52.222;21.246;2022-09-09T14:10:01;36.28;;;21.20;;
22660;SDS011;11497;52.222;21.246;2022-09-09T14:12:29;33.47;;;21.23;;
22660;SDS011;11497;52.222;21.246;2022-09-09T14:14:57;32.75;;;21.90;;
22660;SDS011;11497;52.222;21.246;2022-09-09T14:17:27;35.45;;;21.08;;
22660;SDS011;11497;52.222;21.246;2022-09-09T14:19:57;32.30;;;20.88;;
22660;SDS011;11497;52.222;21.246;2022-09-09T14:22:25;34.33;;;21.77;;
22660;SDS011;11497;52.222;21.246;2022-09-09T14:24:53;34.58;;;22.13;;
22660;SDS011;11497;52.222;21.246;2022-09-09T14:27:20;35.13;;;21.15;;
22660;SDS011;11497;52.222;21.246;2022-09-09T14:29:48;37.65;;;22.50;;
22660;SDS011;11497;52.222;21.246;2022-09-09T14:32:16;33.60;;;22.88;;
22660;SDS011;11497;52.222;21.246;2022-09-09T14:34:44;37.03;;;22.80;;
22660;SDS011;11497;52.222;21.246;2022-09-09T14:37:11;38.13;;;23.05;;
22660;SDS011;11497;52.222;21.246;2022-09-09T14:39:39;39.25;;;22.73;;
22660;SDS011;11497;52.222;21.246;2022-09-09T14:42:07;35.47;;;21.73;;
22660;SDS011;11497;52.222;21.246;2022-09-09T14:44:37;33.28;;;20.98;;
22660;SDS011;11497;52.222;21.246;2022-09-09T14:47:05;35.72;;;21.60;;
22660;SDS011;11497;52.222;21.246;2022-09-09T14:49:34;34.83;;;21.83;;
22660;SDS011;11497;52.222;21.246;2022-09-09T14:52:06;33.83;;;20.67;;
22660;SDS011;11497;52.222;21.246;2022-09-09T14:54:36;36.17;;;21.55;;
22660;SDS011;11497;52.222;21.246;2022-09-09T14:57:03;32.42;;;22.02;;
22660;SDS011;11497;52.222;21.246;2022-09-09T14:59:31;37.28;;;21.65;;
22660;SDS011;11497;52.222;21.246;2022-09-09T15:01:59;37.50;;;22.38;;
22660;SDS011;11497;52.222;21.246;2022-09-09T15:04:31;33.97;;;22.05;;
22660;SDS011;11497;52.222;21.246;2022-09-09T15:06:58;37.05;;;22.70;;
22660;SDS011;11497;52.222;21.246;2022-09-09T15:09:26;34.53;;;22.25;;
22660;SDS011;11497;52.222;21.246;2022-09-09T15:11:54;33.20;;;21.48;;
22660;SDS011;11497;52.222;21.246;2022-09-09T15:14:22;39.55;;;22.63;;
22660;SDS011;11497;52.222;21.246;2022-09-09T15:16:51;36.05;;;21.77;;
22660;SDS011;11497;52.222;21.246;2022-09-09T15:19:19;33.85;;;21.75;;
22660;SDS011;11497;52.222;21.246;2022-09-09T15:21:47;35.95;;;21.38;;
22660;SDS011;11497;52.222;21.246;2022-09-09T15:24:15;38.15;;;22.98;;
22660;SDS011;11497;52.222;21.246;2022-09-09T15:26:43;35.00;;;21.67;;
22660;SDS011;11497;52.222;21.246;2022-09-09T15:29:11;41.38;;;23.38;;
22660;SDS011;11497;52.222;21.246;2022-09-09T15:31:39;36.90;;;23.40;;
22660;SDS011;11497;52.222;21.246;2022-09-09T15:34:07;40.17;;;23.13;;
22660;SDS011;11497;52.222;21.246;2022-09-09T15:36:36;37.42;;;22.52;;
22660;SDS011;11497;52.222;21.246;2022-09-09T15:39:10;34.00;;;21.30;;
22660;SDS011;11497;52.222;21.246;2022-09-09T15:41:46;40.63;;;22.98;;
22660;SDS011;11497;52.222;21.246;2022-09-09T15:44:15;37.00;;;23.08;;
22660;SDS011;11497;52.222;21.246;2022-09-09T15:46:44;39.85;;;24.35;;
22660;SDS011;11497;52.222;21.246;2022-09-09T15:49:20;36.03;;;22.67;;
22660;SDS011;11497;52.222;21.246;2022-09-09T15:51:53;39.35;;;22.67;;
22660;SDS011;11497;52.222;21.246;2022-09-09T15:54:25;37.03;;;22.90;;
22660;SDS011;11497;52.222;21.246;2022-09-09T15:56:54;36.90;;;22.70;;
22660;SDS011;11497;52.222;21.246;2022-09-09T15:59:24;36.72;;;23.25;;
22660;SDS011;11497;52.222;21.246;2022-09-09T16:01:55;39.55;;;23.63;;
22660;SDS011;11497;52.222;21.246;2022-09-09T16:04:23;43.67;;;23.75;;
22660;SDS011;11497;52.222;21.246;2022-09-09T16:06:52;38.13;;;22.60;;
22660;SDS011;11497;52.222;21.246;2022-09-09T16:09:27;39.10;;;22.05;;
22660;SDS011;11497;52.222;21.246;2022-09-09T16:11:56;37.00;;;23.30;;
22660;SDS011;11497;52.222;21.246;2022-09-09T16:14:27;39.90;;;23.17;;
22660;SDS011;11497;52.222;21.246;2022-09-09T16:16:55;41.03;;;22.15;;
22660;SDS011;11497;52.222;21.246;2022-09-09T16:19:23;37.13;;;21.55;;
22660;SDS011;11497;52.222;21.246;2022-09-09T16:21:52;34.42;;;22.83;;